Calpella, California
Current Conditions -  °F | °C
As of 9:56 AM on Monday 26 Jan 2015 (Local Time) from KUKI Reporting Station
Clear Clear  
Wind Chill: 48°   Ceiling: Unl
Heat Index: 48°   Visibility: 10mi
Dew Point: 43°   Wind: 0mph
Humidity: 83%   Direction: NA
Pressure: 30.07"   Gusts: NA
Location:  39.23°N, 123.21°W
Report Text: KUKI 261756Z AUTO 00000KT 10SM CLR 09/06 A3007 RMK AO2 SLP180 T00890061 10089 20028 50003
Loading
Personal Weather Stations






























Interactive Weather Map New forecast layout! Learn more

10-Day Weather Forecast

Advertisements
Track Severe Weather on mobile